sensor_id;sensor_type;location;lat;lon;timestamp;temperature;humidity
8979;DHT22;4524;51.364;5.448;2022-09-23T00:01:20;10.80;99.90
8979;DHT22;4524;51.364;5.448;2022-09-23T00:03:49;10.70;99.90
8979;DHT22;4524;51.364;5.448;2022-09-23T00:06:18;10.70;99.90
8979;DHT22;4524;51.364;5.448;2022-09-23T00:08:47;10.60;99.90
8979;DHT22;4524;51.364;5.448;2022-09-23T00:11:18;10.70;99.90
8979;DHT22;4524;51.364;5.448;2022-09-23T00:13:48;10.70;99.90
8979;DHT22;4524;51.364;5.448;2022-09-23T00:16:18;10.60;99.90
8979;DHT22;4524;51.364;5.448;2022-09-23T00:18:46;10.60;99.90
8979;DHT22;4524;51.364;5.448;2022-09-23T00:21:16;10.50;99.90
8979;DHT22;4524;51.364;5.448;2022-09-23T00:23:44;10.60;99.90
8979;DHT22;4524;51.364;5.448;2022-09-23T00:26:14;10.60;99.90
8979;DHT22;4524;51.364;5.448;2022-09-23T00:28:45;10.60;99.90
8979;DHT22;4524;51.364;5.448;2022-09-23T00:31:15;10.60;99.90
8979;DHT22;4524;51.364;5.448;2022-09-23T00:33:43;10.50;99.90
8979;DHT22;4524;51.364;5.448;2022-09-23T00:36:12;10.60;99.90
8979;DHT22;4524;51.364;5.448;2022-09-23T00:38:42;10.60;99.90
8979;DHT22;4524;51.364;5.448;2022-09-23T00:41:10;10.60;99.90
8979;DHT22;4524;51.364;5.448;2022-09-23T00:43:42;10.60;99.90
8979;DHT22;4524;51.364;5.448;2022-09-23T00:46:14;10.60;99.90
8979;DHT22;4524;51.364;5.448;2022-09-23T00:48:44;10.60;99.90
8979;DHT22;4524;51.364;5.448;2022-09-23T00:51:15;10.50;99.90
8979;DHT22;4524;51.364;5.448;2022-09-23T00:53:47;10.50;99.90
8979;DHT22;4524;51.364;5.448;2022-09-23T00:56:19;10.40;99.90
8979;DHT22;4524;51.364;5.448;2022-09-23T00:58:49;10.40;99.90
8979;DHT22;4524;51.364;5.448;2022-09-23T01:01:19;10.40;99.90
8979;DHT22;4524;51.364;5.448;2022-09-23T01:03:48;10.40;99.90
8979;DHT22;4524;51.364;5.448;2022-09-23T01:06:16;10.40;99.90
8979;DHT22;4524;51.364;5.448;2022-09-23T01:08:45;10.50;99.90
8979;DHT22;4524;51.364;5.448;2022-09-23T01:11:23;10.50;99.90
8979;DHT22;4524;51.364;5.448;2022-09-23T01:14:02;10.40;99.90
8979;DHT22;4524;51.364;5.448;2022-09-23T01:16:39;10.40;99.90
8979;DHT22;4524;51.364;5.448;2022-09-23T01:19:22;10.40;99.90
8979;DHT22;4524;51.364;5.448;2022-09-23T01:21:59;10.40;99.90
8979;DHT22;4524;51.364;5.448;2022-09-23T01:24:45;10.30;99.90
8979;DHT22;4524;51.364;5.448;2022-09-23T01:27:32;10.30;99.90
8979;DHT22;4524;51.364;5.448;2022-09-23T01:30:29;10.30;99.90
8979;DHT22;4524;51.364;5.448;2022-09-23T01:33:08;10.30;99.90
8979;DHT22;4524;51.364;5.448;2022-09-23T01:35:45;10.20;99.90
8979;DHT22;4524;51.364;5.448;2022-09-23T01:38:21;10.20;99.90
8979;DHT22;4524;51.364;5.448;2022-09-23T01:40:56;10.20;99.90
8979;DHT22;4524;51.364;5.448;2022-09-23T01:43:30;10.20;99.90
8979;DHT22;4524;51.364;5.448;2022-09-23T01:46:06;10.20;99.90
8979;DHT22;4524;51.364;5.448;2022-09-23T01:48:37;10.20;99.90
8979;DHT22;4524;51.364;5.448;2022-09-23T01:51:12;10.20;99.90
8979;DHT22;4524;51.364;5.448;2022-09-23T01:53:45;10.20;99.90
8979;DHT22;4524;51.364;5.448;2022-09-23T01:56:18;10.20;99.90
8979;DHT22;4524;51.364;5.448;2022-09-23T01:58:51;10.20;99.90
8979;DHT22;4524;51.364;5.448;2022-09-23T02:01:27;10.20;99.90
8979;DHT22;4524;51.364;5.448;2022-09-23T02:04:01;10.20;99.90
8979;DHT22;4524;51.364;5.448;2022-09-23T02:06:34;10.30;99.90
8979;DHT22;4524;51.364;5.448;2022-09-23T02:09:08;10.20;99.90
8979;DHT22;4524;51.364;5.448;2022-09-23T02:11:39;10.30;99.90
8979;DHT22;4524;51.364;5.448;2022-09-23T02:14:11;10.30;99.90
8979;DHT22;4524;51.364;5.448;2022-09-23T02:16:44;10.30;99.90
8979;DHT22;4524;51.364;5.448;2022-09-23T02:19:18;10.30;99.90
8979;DHT22;4524;51.364;5.448;2022-09-23T02:21:51;10.30;99.90
8979;DHT22;4524;51.364;5.448;2022-09-23T02:24:24;10.30;99.90
8979;DHT22;4524;51.364;5.448;2022-09-23T02:26:58;10.30;99.90
8979;DHT22;4524;51.364;5.448;2022-09-23T02:29:32;10.30;99.90
8979;DHT22;4524;51.364;5.448;2022-09-23T02:32:11;10.40;99.90
8979;DHT22;4524;51.364;5.448;2022-09-23T02:34:45;10.40;99.90
8979;DHT22;4524;51.364;5.448;2022-09-23T02:37:22;10.30;99.90
8979;DHT22;4524;51.364;5.448;2022-09-23T02:39:58;10.30;99.90
8979;DHT22;4524;51.364;5.448;2022-09-23T02:42:32;10.30;99.90
8979;DHT22;4524;51.364;5.448;2022-09-23T02:45:02;10.30;99.90
8979;DHT22;4524;51.364;5.448;2022-09-23T02:47:33;10.20;99.90
8979;DHT22;4524;51.364;5.448;2022-09-23T02:50:02;10.20;99.90
8979;DHT22;4524;51.364;5.448;2022-09-23T02:52:31;10.20;99.90
8979;DHT22;4524;51.364;5.448;2022-09-23T02:54:59;10.10;99.90
8979;DHT22;4524;51.364;5.448;2022-09-23T02:57:27;10.10;99.90
8979;DHT22;4524;51.364;5.448;2022-09-23T02:59:55;10.10;99.90
8979;DHT22;4524;51.364;5.448;2022-09-23T03:02:43;10.10;99.90
8979;DHT22;4524;51.364;5.448;2022-09-23T03:05:20;10.00;99.90
8979;DHT22;4524;51.364;5.448;2022-09-23T03:08:02;10.00;99.90
8979;DHT22;4524;51.364;5.448;2022-09-23T03:10:39;10.00;99.90
8979;DHT22;4524;51.364;5.448;2022-09-23T03:13:15;10.00;99.90
8979;DHT22;4524;51.364;5.448;2022-09-23T03:15:48;9.90;99.90
8979;DHT22;4524;51.364;5.448;2022-09-23T03:18:24;9.90;99.90
8979;DHT22;4524;51.364;5.448;2022-09-23T03:21:01;9.90;99.90
8979;DHT22;4524;51.364;5.448;2022-09-23T03:23:32;9.90;99.90
8979;DHT22;4524;51.364;5.448;2022-09-23T03:26:04;9.90;99.90
8979;DHT22;4524;51.364;5.448;2022-09-23T03:28:35;9.90;99.90
8979;DHT22;4524;51.364;5.448;2022-09-23T03:31:04;9.80;99.90
8979;DHT22;4524;51.364;5.448;2022-09-23T03:33:34;9.80;99.90
8979;DHT22;4524;51.364;5.448;2022-09-23T03:36:07;9.80;99.90
8979;DHT22;4524;51.364;5.448;2022-09-23T03:38:56;9.70;99.90
8979;DHT22;4524;51.364;5.448;2022-09-23T03:41:30;9.70;99.90
8979;DHT22;4524;51.364;5.448;2022-09-23T03:43:59;9.70;99.90
8979;DHT22;4524;51.364;5.448;2022-09-23T03:46:28;9.70;99.90
8979;DHT22;4524;51.364;5.448;2022-09-23T03:49:08;9.70;99.90
8979;DHT22;4524;51.364;5.448;2022-09-23T03:51:37;9.60;99.90
8979;DHT22;4524;51.364;5.448;2022-09-23T03:54:10;9.60;99.90
8979;DHT22;4524;51.364;5.448;2022-09-23T03:56:38;9.60;99.90
8979;DHT22;4524;51.364;5.448;2022-09-23T03:59:06;9.60;99.90
8979;DHT22;4524;51.364;5.448;2022-09-23T04:01:34;9.60;99.90
8979;DHT22;4524;51.364;5.448;2022-09-23T04:04:03;9.60;99.90
8979;DHT22;4524;51.364;5.448;2022-09-23T04:06:31;9.60;99.90
8979;DHT22;4524;51.364;5.448;2022-09-23T04:08:59;9.60;99.90
8979;DHT22;4524;51.364;5.448;2022-09-23T04:11:27;9.60;99.90
8979;DHT22;4524;51.364;5.448;2022-09-23T04:13:55;9.60;99.90
8979;DHT22;4524;51.364;5.448;2022-09-23T04:16:24;9.50;99.90
8979;DHT22;4524;51.364;5.448;2022-09-23T04:18:52;9.50;99.90
8979;DHT22;4524;51.364;5.448;2022-09-23T04:21:21;9.50;99.90
8979;DHT22;4524;51.364;5.448;2022-09-23T04:23:49;9.60;99.90
8979;DHT22;4524;51.364;5.448;2022-09-23T04:26:17;9.60;99.90
8979;DHT22;4524;51.364;5.448;2022-09-23T04:28:45;9.60;99.90
8979;DHT22;4524;51.364;5.448;2022-09-23T04:31:13;9.60;99.90
8979;DHT22;4524;51.364;5.448;2022-09-23T04:33:41;9.60;99.90
8979;DHT22;4524;51.364;5.448;2022-09-23T04:36:09;9.60;99.90
8979;DHT22;4524;51.364;5.448;2022-09-23T04:38:38;9.50;99.90
8979;DHT22;4524;51.364;5.448;2022-09-23T04:41:07;9.60;99.90
8979;DHT22;4524;51.364;5.448;2022-09-23T04:43:36;9.60;99.90
8979;DHT22;4524;51.364;5.448;2022-09-23T04:46:06;9.60;99.90
8979;DHT22;4524;51.364;5.448;2022-09-23T04:48:35;9.60;99.90
8979;DHT22;4524;51.364;5.448;2022-09-23T04:51:05;9.60;99.90
8979;DHT22;4524;51.364;5.448;2022-09-23T04:53:34;9.60;99.90
8979;DHT22;4524;51.364;5.448;2022-09-23T04:56:06;9.60;99.90
8979;DHT22;4524;51.364;5.448;2022-09-23T04:58:35;9.60;99.90
8979;DHT22;4524;51.364;5.448;2022-09-23T05:01:12;9.60;99.90
8979;DHT22;4524;51.364;5.448;2022-09-23T05:03:41;9.60;99.90
8979;DHT22;4524;51.364;5.448;2022-09-23T05:06:10;9.60;99.90
8979;DHT22;4524;51.364;5.448;2022-09-23T05:08:39;9.60;99.90
8979;DHT22;4524;51.364;5.448;2022-09-23T05:11:09;9.60;99.90
8979;DHT22;4524;51.364;5.448;2022-09-23T05:13:36;9.60;99.90
8979;DHT22;4524;51.364;5.448;2022-09-23T05:16:06;9.50;99.90
8979;DHT22;4524;51.364;5.448;2022-09-23T05:18:35;9.50;99.90
8979;DHT22;4524;51.364;5.448;2022-09-23T05:21:07;9.60;99.90
8979;DHT22;4524;51.364;5.448;2022-09-23T05:23:35;9.60;99.90
8979;DHT22;4524;51.364;5.448;2022-09-23T05:26:05;9.60;99.90
8979;DHT22;4524;51.364;5.448;2022-09-23T05:28:35;9.70;99.90
8979;DHT22;4524;51.364;5.448;2022-09-23T05:31:07;9.60;99.90
8979;DHT22;4524;51.364;5.448;2022-09-23T05:33:36;9.70;99.90
8979;DHT22;4524;51.364;5.448;2022-09-23T05:36:05;9.70;99.90
8979;DHT22;4524;51.364;5.448;2022-09-23T05:38:33;9.70;99.90
8979;DHT22;4524;51.364;5.448;2022-09-23T05:41:03;9.70;99.90
8979;DHT22;4524;51.364;5.448;2022-09-23T05:43:31;9.70;99.90
8979;DHT22;4524;51.364;5.448;2022-09-23T05:46:02;9.80;99.90
8979;DHT22;4524;51.364;5.448;2022-09-23T05:48:34;9.80;99.90
8979;DHT22;4524;51.364;5.448;2022-09-23T05:51:03;9.80;99.90
8979;DHT22;4524;51.364;5.448;2022-09-23T05:53:39;9.90;99.90
8979;DHT22;4524;51.364;5.448;2022-09-23T05:56:08;9.90;99.90
8979;DHT22;4524;51.364;5.448;2022-09-23T05:58:36;9.90;99.90
8979;DHT22;4524;51.364;5.448;2022-09-23T06:01:10;9.90;99.90
8979;DHT22;4524;51.364;5.448;2022-09-23T06:03:38;10.00;99.90
8979;DHT22;4524;51.364;5.448;2022-09-23T06:06:10;10.10;99.90
8979;DHT22;4524;51.364;5.448;2022-09-23T06:08:40;10.10;99.90
8979;DHT22;4524;51.364;5.448;2022-09-23T06:11:08;10.10;98.00
8979;DHT22;4524;51.364;5.448;2022-09-23T06:13:38;10.20;99.80
8979;DHT22;4524;51.364;5.448;2022-09-23T06:16:09;10.20;94.50
8979;DHT22;4524;51.364;5.448;2022-09-23T06:18:38;10.30;99.90
8979;DHT22;4524;51.364;5.448;2022-09-23T06:21:07;10.30;99.90
8979;DHT22;4524;51.364;5.448;2022-09-23T06:23:35;10.30;99.90
8979;DHT22;4524;51.364;5.448;2022-09-23T06:26:08;10.40;92.20
8979;DHT22;4524;51.364;5.448;2022-09-23T06:28:38;10.40;99.90
8979;DHT22;4524;51.364;5.448;2022-09-23T06:31:10;10.40;99.90
8979;DHT22;4524;51.364;5.448;2022-09-23T06:33:40;10.50;86.10
8979;DHT22;4524;51.364;5.448;2022-09-23T06:36:10;10.50;60.50
8979;DHT22;4524;51.364;5.448;2022-09-23T06:38:39;10.60;49.40
8979;DHT22;4524;51.364;5.448;2022-09-23T06:41:07;10.60;48.10
8979;DHT22;4524;51.364;5.448;2022-09-23T06:43:35;10.70;41.20
8979;DHT22;4524;51.364;5.448;2022-09-23T06:46:05;10.70;72.30
8979;DHT22;4524;51.364;5.448;2022-09-23T06:48:34;10.80;65.80
8979;DHT22;4524;51.364;5.448;2022-09-23T06:51:03;10.80;88.10
8979;DHT22;4524;51.364;5.448;2022-09-23T06:53:33;10.90;76.50
8979;DHT22;4524;51.364;5.448;2022-09-23T06:56:03;11.00;67.10
8979;DHT22;4524;51.364;5.448;2022-09-23T06:58:32;11.00;75.10
8979;DHT22;4524;51.364;5.448;2022-09-23T07:01:01;11.10;57.50
8979;DHT22;4524;51.364;5.448;2022-09-23T07:03:30;11.20;71.40
8979;DHT22;4524;51.364;5.448;2022-09-23T07:06:00;11.20;63.00
8979;DHT22;4524;51.364;5.448;2022-09-23T07:08:29;11.30;56.60
8979;DHT22;4524;51.364;5.448;2022-09-23T07:11:00;11.40;38.80
8979;DHT22;4524;51.364;5.448;2022-09-23T07:13:29;11.50;30.60
8979;DHT22;4524;51.364;5.448;2022-09-23T07:15:58;11.60;29.70
8979;DHT22;4524;51.364;5.448;2022-09-23T07:18:29;11.70;28.00
8979;DHT22;4524;51.364;5.448;2022-09-23T07:21:08;11.80;31.50
8979;DHT22;4524;51.364;5.448;2022-09-23T07:23:38;11.90;21.20
8979;DHT22;4524;51.364;5.448;2022-09-23T07:26:06;12.00;5.40
8979;DHT22;4524;51.364;5.448;2022-09-23T07:28:34;12.20;1.10
8979;DHT22;4524;51.364;5.448;2022-09-23T07:31:05;12.20;7.00
8979;DHT22;4524;51.364;5.448;2022-09-23T07:33:36;12.30;1.00
8979;DHT22;4524;51.364;5.448;2022-09-23T07:36:09;12.30;1.00
8979;DHT22;4524;51.364;5.448;2022-09-23T07:38:38;12.30;1.00
8979;DHT22;4524;51.364;5.448;2022-09-23T07:41:13;12.40;1.00
8979;DHT22;4524;51.364;5.448;2022-09-23T07:43:41;12.40;1.00
8979;DHT22;4524;51.364;5.448;2022-09-23T07:46:11;12.50;1.00
8979;DHT22;4524;51.364;5.448;2022-09-23T07:48:42;12.60;1.00
8979;DHT22;4524;51.364;5.448;2022-09-23T07:51:13;12.70;1.00
8979;DHT22;4524;51.364;5.448;2022-09-23T07:53:45;12.80;1.00
8979;DHT22;4524;51.364;5.448;2022-09-23T07:56:14;12.90;1.00
8979;DHT22;4524;51.364;5.448;2022-09-23T07:58:45;13.00;1.00
8979;DHT22;4524;51.364;5.448;2022-09-23T08:01:26;13.10;1.00
8979;DHT22;4524;51.364;5.448;2022-09-23T08:03:55;13.10;1.00
8979;DHT22;4524;51.364;5.448;2022-09-23T08:06:24;13.20;1.00
8979;DHT22;4524;51.364;5.448;2022-09-23T08:08:52;13.20;1.00
8979;DHT22;4524;51.364;5.448;2022-09-23T08:11:20;13.40;1.00
8979;DHT22;4524;51.364;5.448;2022-09-23T08:13:49;13.40;1.00
8979;DHT22;4524;51.364;5.448;2022-09-23T08:16:17;13.50;1.00
8979;DHT22;4524;51.364;5.448;2022-09-23T08:18:45;13.50;1.00
8979;DHT22;4524;51.364;5.448;2022-09-23T08:21:18;13.60;1.00
8979;DHT22;4524;51.364;5.448;2022-09-23T08:23:48;13.70;1.00
8979;DHT22;4524;51.364;5.448;2022-09-23T08:26:16;13.70;1.00
8979;DHT22;4524;51.364;5.448;2022-09-23T08:28:48;13.80;1.00
8979;DHT22;4524;51.364;5.448;2022-09-23T08:31:19;13.80;1.00
8979;DHT22;4524;51.364;5.448;2022-09-23T08:33:52;13.80;1.00
8979;DHT22;4524;51.364;5.448;2022-09-23T08:36:21;13.90;1.00
8979;DHT22;4524;51.364;5.448;2022-09-23T08:38:51;14.00;1.00
8979;DHT22;4524;51.364;5.448;2022-09-23T08:41:23;14.00;1.00
8979;DHT22;4524;51.364;5.448;2022-09-23T08:43:55;14.10;1.00
8979;DHT22;4524;51.364;5.448;2022-09-23T08:46:25;14.20;1.00
8979;DHT22;4524;51.364;5.448;2022-09-23T08:48:54;14.20;1.00
8979;DHT22;4524;51.364;5.448;2022-09-23T08:51:27;14.20;1.00
8979;DHT22;4524;51.364;5.448;2022-09-23T08:53:58;14.30;1.00
8979;DHT22;4524;51.364;5.448;2022-09-23T08:56:28;14.40;1.00
8979;DHT22;4524;51.364;5.448;2022-09-23T08:59:02;14.50;1.00
8979;DHT22;4524;51.364;5.448;2022-09-23T09:01:38;14.50;1.00
8979;DHT22;4524;51.364;5.448;2022-09-23T09:04:15;14.60;1.00
8979;DHT22;4524;51.364;5.448;2022-09-23T09:06:46;14.70;1.00
8979;DHT22;4524;51.364;5.448;2022-09-23T09:09:24;14.80;99.90
8979;DHT22;4524;51.364;5.448;2022-09-23T09:11:57;14.90;99.90
8979;DHT22;4524;51.364;5.448;2022-09-23T09:14:35;15.00;99.90
8979;DHT22;4524;51.364;5.448;2022-09-23T09:17:04;15.10;99.90
8979;DHT22;4524;51.364;5.448;2022-09-23T09:19:51;15.30;99.90
8979;DHT22;4524;51.364;5.448;2022-09-23T09:22:27;15.50;99.90
8979;DHT22;4524;51.364;5.448;2022-09-23T09:25:08;15.60;99.90
8979;DHT22;4524;51.364;5.448;2022-09-23T09:27:40;15.80;99.90
8979;DHT22;4524;51.364;5.448;2022-09-23T09:30:11;15.90;99.90
8979;DHT22;4524;51.364;5.448;2022-09-23T09:32:43;16.00;99.90
8979;DHT22;4524;51.364;5.448;2022-09-23T09:35:20;16.10;99.90
8979;DHT22;4524;51.364;5.448;2022-09-23T09:37:50;16.20;99.90
8979;DHT22;4524;51.364;5.448;2022-09-23T09:40:20;16.30;99.90
8979;DHT22;4524;51.364;5.448;2022-09-23T09:42:49;16.40;99.90
8979;DHT22;4524;51.364;5.448;2022-09-23T09:45:28;16.60;99.90
8979;DHT22;4524;51.364;5.448;2022-09-23T09:48:07;16.80;99.90
8979;DHT22;4524;51.364;5.448;2022-09-23T09:50:43;16.80;99.90
8979;DHT22;4524;51.364;5.448;2022-09-23T09:53:19;16.80;99.90
8979;DHT22;4524;51.364;5.448;2022-09-23T09:55:59;16.90;99.90
8979;DHT22;4524;51.364;5.448;2022-09-23T09:58:38;16.90;99.90
8979;DHT22;4524;51.364;5.448;2022-09-23T10:01:18;16.90;99.90
8979;DHT22;4524;51.364;5.448;2022-09-23T10:03:46;17.00;99.90
8979;DHT22;4524;51.364;5.448;2022-09-23T10:06:20;17.10;99.90
8979;DHT22;4524;51.364;5.448;2022-09-23T10:09:11;17.20;99.90
8979;DHT22;4524;51.364;5.448;2022-09-23T10:11:41;17.30;99.90
8979;DHT22;4524;51.364;5.448;2022-09-23T10:14:14;17.40;99.90
8979;DHT22;4524;51.364;5.448;2022-09-23T10:16:45;17.40;99.90
8979;DHT22;4524;51.364;5.448;2022-09-23T10:19:23;17.50;99.90
8979;DHT22;4524;51.364;5.448;2022-09-23T10:21:53;17.70;99.90
8979;DHT22;4524;51.364;5.448;2022-09-23T10:24:24;17.70;99.90
8979;DHT22;4524;51.364;5.448;2022-09-23T10:26:56;17.70;99.90
8979;DHT22;4524;51.364;5.448;2022-09-23T10:29:29;17.70;99.90
8979;DHT22;4524;51.364;5.448;2022-09-23T10:32:24;17.80;99.90
8979;DHT22;4524;51.364;5.448;2022-09-23T10:34:56;17.80;99.90
8979;DHT22;4524;51.364;5.448;2022-09-23T10:37:31;17.80;99.90
8979;DHT22;4524;51.364;5.448;2022-09-23T10:40:00;17.90;99.90
8979;DHT22;4524;51.364;5.448;2022-09-23T10:43:18;18.00;99.90
8979;DHT22;4524;51.364;5.448;2022-09-23T10:46:06;18.10;99.90
8979;DHT22;4524;51.364;5.448;2022-09-23T10:49:05;18.10;99.90
8979;DHT22;4524;51.364;5.448;2022-09-23T10:51:43;18.20;99.90
8979;DHT22;4524;51.364;5.448;2022-09-23T10:54:20;18.20;99.90
8979;DHT22;4524;51.364;5.448;2022-09-23T10:56:53;18.30;99.90
8979;DHT22;4524;51.364;5.448;2022-09-23T10:59:44;18.40;99.90
8979;DHT22;4524;51.364;5.448;2022-09-23T11:02:29;18.40;99.90
8979;DHT22;4524;51.364;5.448;2022-09-23T11:05:22;18.50;99.90
8979;DHT22;4524;51.364;5.448;2022-09-23T11:08:02;18.50;99.90
8979;DHT22;4524;51.364;5.448;2022-09-23T11:10:55;18.60;99.90
8979;DHT22;4524;51.364;5.448;2022-09-23T11:13:38;18.60;99.90
8979;DHT22;4524;51.364;5.448;2022-09-23T11:16:16;18.60;99.90
8979;DHT22;4524;51.364;5.448;2022-09-23T11:19:01;18.70;99.90
8979;DHT22;4524;51.364;5.448;2022-09-23T11:21:44;18.80;99.90
8979;DHT22;4524;51.364;5.448;2022-09-23T11:24:26;18.90;99.90
8979;DHT22;4524;51.364;5.448;2022-09-23T11:27:04;19.00;99.90
8979;DHT22;4524;51.364;5.448;2022-09-23T11:29:54;19.10;99.90
8979;DHT22;4524;51.364;5.448;2022-09-23T11:32:37;19.10;99.90
8979;DHT22;4524;51.364;5.448;2022-09-23T11:35:15;19.10;99.90
8979;DHT22;4524;51.364;5.448;2022-09-23T11:37:47;19.20;99.90
8979;DHT22;4524;51.364;5.448;2022-09-23T11:40:19;19.30;99.90
8979;DHT22;4524;51.364;5.448;2022-09-23T11:42:52;19.40;99.90
8979;DHT22;4524;51.364;5.448;2022-09-23T11:45:24;19.30;99.90
8979;DHT22;4524;51.364;5.448;2022-09-23T11:47:56;19.40;99.90
8979;DHT22;4524;51.364;5.448;2022-09-23T11:50:28;19.50;99.90
8979;DHT22;4524;51.364;5.448;2022-09-23T11:53:03;19.50;99.90
8979;DHT22;4524;51.364;5.448;2022-09-23T11:55:38;19.50;99.90
8979;DHT22;4524;51.364;5.448;2022-09-23T11:58:25;19.50;99.90
8979;DHT22;4524;51.364;5.448;2022-09-23T12:00:58;19.50;99.90
8979;DHT22;4524;51.364;5.448;2022-09-23T12:03:36;19.40;99.90
8979;DHT22;4524;51.364;5.448;2022-09-23T12:06:14;19.40;99.90
8979;DHT22;4524;51.364;5.448;2022-09-23T12:08:44;19.40;99.90
8979;DHT22;4524;51.364;5.448;2022-09-23T12:11:23;19.40;99.90
8979;DHT22;4524;51.364;5.448;2022-09-23T12:13:55;19.40;99.90
8979;DHT22;4524;51.364;5.448;2022-09-23T12:16:51;19.40;99.90
8979;DHT22;4524;51.364;5.448;2022-09-23T12:19:41;19.40;99.90
8979;DHT22;4524;51.364;5.448;2022-09-23T12:22:24;19.40;99.90
8979;DHT22;4524;51.364;5.448;2022-09-23T12:24:56;19.40;99.90
8979;DHT22;4524;51.364;5.448;2022-09-23T12:27:31;19.40;99.90
8979;DHT22;4524;51.364;5.448;2022-09-23T12:30:03;19.40;99.90
8979;DHT22;4524;51.364;5.448;2022-09-23T12:32:32;19.40;99.90
8979;DHT22;4524;51.364;5.448;2022-09-23T12:35:01;19.50;99.90
8979;DHT22;4524;51.364;5.448;2022-09-23T12:37:33;19.50;99.90
8979;DHT22;4524;51.364;5.448;2022-09-23T12:40:06;19.50;99.90
8979;DHT22;4524;51.364;5.448;2022-09-23T12:42:41;19.50;99.90
8979;DHT22;4524;51.364;5.448;2022-09-23T12:45:34;19.50;99.90
8979;DHT22;4524;51.364;5.448;2022-09-23T12:48:25;19.50;99.90
8979;DHT22;4524;51.364;5.448;2022-09-23T12:50:57;19.50;99.90
8979;DHT22;4524;51.364;5.448;2022-09-23T12:53:55;19.40;99.90
8979;DHT22;4524;51.364;5.448;2022-09-23T12:59:22;19.50;99.90
8979;DHT22;4524;51.364;5.448;2022-09-23T13:01:51;19.50;99.90
8979;DHT22;4524;51.364;5.448;2022-09-23T13:04:28;19.50;99.90
8979;DHT22;4524;51.364;5.448;2022-09-23T13:07:17;19.40;99.90
8979;DHT22;4524;51.364;5.448;2022-09-23T13:09:50;19.30;99.90
8979;DHT22;4524;51.364;5.448;2022-09-23T13:12:23;19.40;99.90
8979;DHT22;4524;51.364;5.448;2022-09-23T13:14:54;19.40;99.90
8979;DHT22;4524;51.364;5.448;2022-09-23T13:17:30;19.40;99.90
8979;DHT22;4524;51.364;5.448;2022-09-23T13:20:02;19.50;99.90
8979;DHT22;4524;51.364;5.448;2022-09-23T13:23:02;19.40;99.90
8979;DHT22;4524;51.364;5.448;2022-09-23T13:25:38;19.30;99.90
8979;DHT22;4524;51.364;5.448;2022-09-23T13:28:26;19.30;99.90
8979;DHT22;4524;51.364;5.448;2022-09-23T13:30:54;19.20;99.90
8979;DHT22;4524;51.364;5.448;2022-09-23T13:33:29;19.20;99.90
8979;DHT22;4524;51.364;5.448;2022-09-23T13:36:00;19.20;99.90
8979;DHT22;4524;51.364;5.448;2022-09-23T13:38:31;19.20;99.90
8979;DHT22;4524;51.364;5.448;2022-09-23T13:41:02;19.10;99.90
8979;DHT22;4524;51.364;5.448;2022-09-23T13:43:34;19.10;99.90
8979;DHT22;4524;51.364;5.448;2022-09-23T13:46:09;19.00;99.90
8979;DHT22;4524;51.364;5.448;2022-09-23T13:48:40;18.90;99.90
8979;DHT22;4524;51.364;5.448;2022-09-23T13:51:19;18.90;99.90
8979;DHT22;4524;51.364;5.448;2022-09-23T13:53:54;18.90;99.90
8979;DHT22;4524;51.364;5.448;2022-09-23T13:56:24;18.90;99.90
8979;DHT22;4524;51.364;5.448;2022-09-23T13:58:53;18.90;99.90
8979;DHT22;4524;51.364;5.448;2022-09-23T14:01:28;18.80;99.90
8979;DHT22;4524;51.364;5.448;2022-09-23T14:03:57;18.80;99.90
8979;DHT22;4524;51.364;5.448;2022-09-23T14:06:26;18.70;99.90
8979;DHT22;4524;51.364;5.448;2022-09-23T14:08:56;18.70;99.90
8979;DHT22;4524;51.364;5.448;2022-09-23T14:11:28;18.70;99.90
8979;DHT22;4524;51.364;5.448;2022-09-23T14:13:59;18.60;99.90
8979;DHT22;4524;51.364;5.448;2022-09-23T14:16:37;18.50;99.90
8979;DHT22;4524;51.364;5.448;2022-09-23T14:19:06;18.40;99.90
8979;DHT22;4524;51.364;5.448;2022-09-23T14:21:38;18.40;99.90
8979;DHT22;4524;51.364;5.448;2022-09-23T14:24:16;18.40;99.90
8979;DHT22;4524;51.364;5.448;2022-09-23T14:26:47;18.40;99.90
8979;DHT22;4524;51.364;5.448;2022-09-23T14:29:17;18.30;99.90
8979;DHT22;4524;51.364;5.448;2022-09-23T14:31:51;18.30;99.90
8979;DHT22;4524;51.364;5.448;2022-09-23T14:34:41;18.30;99.90
8979;DHT22;4524;51.364;5.448;2022-09-23T14:37:27;18.30;99.90
8979;DHT22;4524;51.364;5.448;2022-09-23T14:40:17;18.30;99.90
8979;DHT22;4524;51.364;5.448;2022-09-23T14:42:48;18.30;99.90
8979;DHT22;4524;51.364;5.448;2022-09-23T14:45:19;18.30;99.90
8979;DHT22;4524;51.364;5.448;2022-09-23T14:47:49;18.30;99.90
8979;DHT22;4524;51.364;5.448;2022-09-23T14:50:20;18.30;99.90
8979;DHT22;4524;51.364;5.448;2022-09-23T14:53:28;18.30;99.90
8979;DHT22;4524;51.364;5.448;2022-09-23T14:56:10;18.30;99.90
8979;DHT22;4524;51.364;5.448;2022-09-23T14:58:51;18.30;99.90
8979;DHT22;4524;51.364;5.448;2022-09-23T15:01:33;18.30;99.90
8979;DHT22;4524;51.364;5.448;2022-09-23T15:04:27;18.30;99.90
8979;DHT22;4524;51.364;5.448;2022-09-23T15:06:59;18.30;99.90
8979;DHT22;4524;51.364;5.448;2022-09-23T15:09:31;18.30;99.90
8979;DHT22;4524;51.364;5.448;2022-09-23T15:12:04;18.20;99.90
8979;DHT22;4524;51.364;5.448;2022-09-23T15:14:36;18.30;99.90
8979;DHT22;4524;51.364;5.448;2022-09-23T15:17:15;18.30;99.90
8979;DHT22;4524;51.364;5.448;2022-09-23T15:19:49;18.30;99.90
8979;DHT22;4524;51.364;5.448;2022-09-23T15:22:21;18.30;99.90
8979;DHT22;4524;51.364;5.448;2022-09-23T15:24:52;18.30;99.90
8979;DHT22;4524;51.364;5.448;2022-09-23T15:27:32;18.30;99.90
8979;DHT22;4524;51.364;5.448;2022-09-23T15:30:08;18.30;99.90
8979;DHT22;4524;51.364;5.448;2022-09-23T15:32:41;18.30;99.90
8979;DHT22;4524;51.364;5.448;2022-09-23T15:35:11;18.30;99.90
8979;DHT22;4524;51.364;5.448;2022-09-23T15:37:42;18.30;99.90
8979;DHT22;4524;51.364;5.448;2022-09-23T15:40:16;18.30;99.90
8979;DHT22;4524;51.364;5.448;2022-09-23T15:42:48;18.30;99.90
8979;DHT22;4524;51.364;5.448;2022-09-23T15:45:19;18.30;99.90
8979;DHT22;4524;51.364;5.448;2022-09-23T15:47:49;18.30;99.90
8979;DHT22;4524;51.364;5.448;2022-09-23T15:50:18;18.30;99.90
8979;DHT22;4524;51.364;5.448;2022-09-23T15:52:46;18.30;99.90
8979;DHT22;4524;51.364;5.448;2022-09-23T15:55:15;18.30;99.90
8979;DHT22;4524;51.364;5.448;2022-09-23T15:57:43;18.30;99.90
8979;DHT22;4524;51.364;5.448;2022-09-23T16:00:13;18.20;99.90
8979;DHT22;4524;51.364;5.448;2022-09-23T16:02:44;18.20;99.90
8979;DHT22;4524;51.364;5.448;2022-09-23T16:05:22;18.10;99.90
8979;DHT22;4524;51.364;5.448;2022-09-23T16:07:50;18.10;99.90
8979;DHT22;4524;51.364;5.448;2022-09-23T16:10:19;18.00;99.90
8979;DHT22;4524;51.364;5.448;2022-09-23T16:12:48;18.00;99.90
8979;DHT22;4524;51.364;5.448;2022-09-23T16:15:19;18.10;99.90
8979;DHT22;4524;51.364;5.448;2022-09-23T16:17:47;18.00;99.90
8979;DHT22;4524;51.364;5.448;2022-09-23T16:20:15;18.00;99.90
8979;DHT22;4524;51.364;5.448;2022-09-23T16:22:52;17.90;1.00
8979;DHT22;4524;51.364;5.448;2022-09-23T16:25:22;17.90;1.00
8979;DHT22;4524;51.364;5.448;2022-09-23T16:27:54;17.80;1.00
8979;DHT22;4524;51.364;5.448;2022-09-23T16:30:25;17.80;1.00
8979;DHT22;4524;51.364;5.448;2022-09-23T16:32:53;17.80;99.90
8979;DHT22;4524;51.364;5.448;2022-09-23T16:35:22;17.80;1.00
8979;DHT22;4524;51.364;5.448;2022-09-23T16:37:51;17.70;1.00
8979;DHT22;4524;51.364;5.448;2022-09-23T16:40:21;17.70;1.00
8979;DHT22;4524;51.364;5.448;2022-09-23T16:42:51;17.70;1.00
8979;DHT22;4524;51.364;5.448;2022-09-23T16:45:20;17.70;1.00
8979;DHT22;4524;51.364;5.448;2022-09-23T16:47:50;17.60;1.00
8979;DHT22;4524;51.364;5.448;2022-09-23T16:50:21;17.50;1.00